sensor_id;sensor_type;location;lat;lon;timestamp;pressure;altitude;pressure_sealevel;temperature;humidity
61537;BME280;48695;53.480;-6.300;2023-07-31T00:00:23;99585.13;;;18.89;77.73
61537;BME280;48695;53.480;-6.300;2023-07-31T00:02:49;99586.94;;;18.88;77.71
61537;BME280;48695;53.480;-6.300;2023-07-31T00:05:15;99591.25;;;18.89;78.20
61537;BME280;48695;53.480;-6.300;2023-07-31T00:07:41;99588.59;;;18.89;77.81
61537;BME280;48695;53.480;-6.300;2023-07-31T00:10:06;99584.75;;;18.82;77.65
61537;BME280;48695;53.480;-6.300;2023-07-31T00:12:32;99593.19;;;18.87;77.90
61537;BME280;48695;53.480;-6.300;2023-07-31T00:14:58;99587.91;;;18.87;78.06
61537;BME280;48695;53.480;-6.300;2023-07-31T00:17:23;99532.19;;;18.54;77.75
61537;BME280;48695;53.480;-6.300;2023-07-31T00:19:48;99583.56;;;18.86;77.28
61537;BME280;48695;53.480;-6.300;2023-07-31T00:22:16;99583.56;;;18.86;76.59
61537;BME280;48695;53.480;-6.300;2023-07-31T00:24:41;99575.84;;;18.83;77.51
61537;BME280;48695;53.480;-6.300;2023-07-31T00:27:06;99573.31;;;18.82;77.22
61537;BME280;48695;53.480;-6.300;2023-07-31T00:29:32;99568.50;;;18.76;77.83
61537;BME280;48695;53.480;-6.300;2023-07-31T00:31:57;99570.19;;;18.77;77.63
61537;BME280;48695;53.480;-6.300;2023-07-31T00:34:23;99573.03;;;18.74;78.40
61537;BME280;48695;53.480;-6.300;2023-07-31T00:36:48;99568.72;;;18.73;78.04
61537;BME280;48695;53.480;-6.300;2023-07-31T00:39:13;99566.41;;;18.68;77.70
61537;BME280;48695;53.480;-6.300;2023-07-31T00:41:39;99549.72;;;18.55;77.79
61537;BME280;48695;53.480;-6.300;2023-07-31T00:44:04;99576.13;;;18.67;76.72
61537;BME280;48695;53.480;-6.300;2023-07-31T00:46:29;99563.94;;;18.65;78.05
61537;BME280;48695;53.480;-6.300;2023-07-31T00:48:56;99566.00;;;18.61;77.77
61537;BME280;48695;53.480;-6.300;2023-07-31T00:51:22;99560.81;;;18.60;77.28
61537;BME280;48695;53.480;-6.300;2023-07-31T00:53:47;99531.50;;;18.39;77.81
61537;BME280;48695;53.480;-6.300;2023-07-31T00:56:13;99557.78;;;18.53;77.61
61537;BME280;48695;53.480;-6.300;2023-07-31T00:58:39;99567.50;;;18.53;78.01
61537;BME280;48695;53.480;-6.300;2023-07-31T01:01:04;99569.44;;;18.51;78.31
61537;BME280;48695;53.480;-6.300;2023-07-31T01:03:30;99562.44;;;18.50;78.39
61537;BME280;48695;53.480;-6.300;2023-07-31T01:06:08;99572.81;;;18.53;77.41
61537;BME280;48695;53.480;-6.300;2023-07-31T01:08:49;99563.31;;;18.50;78.13
61537;BME280;48695;53.480;-6.300;2023-07-31T01:11:27;99567.72;;;18.50;77.59
61537;BME280;48695;53.480;-6.300;2023-07-31T01:13:54;99564.56;;;18.45;78.49
61537;BME280;48695;53.480;-6.300;2023-07-31T01:16:20;99561.22;;;18.42;78.52
61537;BME280;48695;53.480;-6.300;2023-07-31T01:18:45;99549.94;;;18.40;78.42
61537;BME280;48695;53.480;-6.300;2023-07-31T01:21:47;99553.16;;;18.44;77.43
61537;BME280;48695;53.480;-6.300;2023-07-31T01:26:45;99547.81;;;18.33;78.62
61537;BME280;48695;53.480;-6.300;2023-07-31T01:32:02;99545.31;;;18.31;78.39
61537;BME280;48695;53.480;-6.300;2023-07-31T01:34:29;99547.19;;;18.29;78.50
61537;BME280;48695;53.480;-6.300;2023-07-31T01:36:56;99545.44;;;18.30;78.40
61537;BME280;48695;53.480;-6.300;2023-07-31T01:39:22;99535.91;;;18.27;78.37
61537;BME280;48695;53.480;-6.300;2023-07-31T01:41:47;99530.25;;;18.21;78.25
61537;BME280;48695;53.480;-6.300;2023-07-31T01:44:12;99532.53;;;18.25;78.26
61537;BME280;48695;53.480;-6.300;2023-07-31T01:46:38;99536.13;;;18.24;78.51
61537;BME280;48695;53.480;-6.300;2023-07-31T01:49:05;99541.41;;;18.24;78.46
61537;BME280;48695;53.480;-6.300;2023-07-31T01:51:31;99533.72;;;18.21;78.72
61537;BME280;48695;53.480;-6.300;2023-07-31T01:54:00;99520.34;;;18.11;77.96
61537;BME280;48695;53.480;-6.300;2023-07-31T01:56:25;99551.38;;;18.21;78.99
61537;BME280;48695;53.480;-6.300;2023-07-31T01:58:50;99554.88;;;18.21;79.17
61537;BME280;48695;53.480;-6.300;2023-07-31T02:01:16;99556.75;;;18.19;78.34
61537;BME280;48695;53.480;-6.300;2023-07-31T02:03:41;99549.56;;;18.21;78.91
61537;BME280;48695;53.480;-6.300;2023-07-31T02:06:07;99551.38;;;18.21;79.06
61537;BME280;48695;53.480;-6.300;2023-07-31T02:08:32;99548.63;;;18.22;78.05
61537;BME280;48695;53.480;-6.300;2023-07-31T02:10:58;99551.38;;;18.21;78.22
61537;BME280;48695;53.480;-6.300;2023-07-31T02:13:23;99558.34;;;18.22;78.09
61537;BME280;48695;53.480;-6.300;2023-07-31T02:15:49;99557.50;;;18.21;78.87
61537;BME280;48695;53.480;-6.300;2023-07-31T02:18:15;99562.78;;;18.21;78.22
61537;BME280;48695;53.480;-6.300;2023-07-31T02:20:41;99553.19;;;18.20;78.43
61537;BME280;48695;53.480;-6.300;2023-07-31T02:23:06;99555.81;;;18.20;79.00
61537;BME280;48695;53.480;-6.300;2023-07-31T02:25:31;99555.81;;;18.20;78.28
61537;BME280;48695;53.480;-6.300;2023-07-31T02:27:57;99563.63;;;18.22;77.91
61537;BME280;48695;53.480;-6.300;2023-07-31T02:30:22;99557.50;;;18.21;78.65
61537;BME280;48695;53.480;-6.300;2023-07-31T02:32:48;99554.09;;;18.19;78.62
61537;BME280;48695;53.480;-6.300;2023-07-31T02:35:13;99550.53;;;18.20;78.69
61537;BME280;48695;53.480;-6.300;2023-07-31T02:37:41;99553.28;;;18.19;79.16
61537;BME280;48695;53.480;-6.300;2023-07-31T02:40:07;99548.81;;;18.19;78.63
61537;BME280;48695;53.480;-6.300;2023-07-31T02:42:32;99546.31;;;18.18;78.89
61537;BME280;48695;53.480;-6.300;2023-07-31T02:44:58;99554.09;;;18.19;79.15
61537;BME280;48695;53.480;-6.300;2023-07-31T02:47:23;99541.84;;;18.18;79.08
61537;BME280;48695;53.480;-6.300;2023-07-31T02:49:49;99558.34;;;18.22;78.54
61537;BME280;48695;53.480;-6.300;2023-07-31T02:52:14;99560.16;;;18.21;79.30
61537;BME280;48695;53.480;-6.300;2023-07-31T02:54:39;99555.81;;;18.20;78.93
61537;BME280;48695;53.480;-6.300;2023-07-31T02:57:05;99554.09;;;18.19;78.70
61537;BME280;48695;53.480;-6.300;2023-07-31T02:59:30;99555.91;;;18.19;78.50
61537;BME280;48695;53.480;-6.300;2023-07-31T03:01:56;99551.47;;;18.19;78.38
61537;BME280;48695;53.480;-6.300;2023-07-31T03:04:21;99555.19;;;18.17;79.01
61537;BME280;48695;53.480;-6.300;2023-07-31T03:06:47;99539.66;;;18.12;78.58
61537;BME280;48695;53.480;-6.300;2023-07-31T03:09:12;99545.66;;;18.14;78.96
61537;BME280;48695;53.480;-6.300;2023-07-31T03:11:37;99537.03;;;18.12;78.89
61537;BME280;48695;53.480;-6.300;2023-07-31T03:14:03;99516.03;;;17.98;79.02
61537;BME280;48695;53.480;-6.300;2023-07-31T03:16:28;99535.34;;;18.11;79.17
61537;BME280;48695;53.480;-6.300;2023-07-31T03:18:54;99545.91;;;18.11;78.63
61537;BME280;48695;53.480;-6.300;2023-07-31T03:21:19;99533.53;;;18.11;78.96
61537;BME280;48695;53.480;-6.300;2023-07-31T03:23:45;99547.81;;;18.09;79.36
61537;BME280;48695;53.480;-6.300;2023-07-31T03:26:10;99544.22;;;18.10;79.19
61537;BME280;48695;53.480;-6.300;2023-07-31T03:28:36;99538.94;;;18.10;79.03
61537;BME280;48695;53.480;-6.300;2023-07-31T03:31:01;99533.16;;;18.05;78.61
61537;BME280;48695;53.480;-6.300;2023-07-31T03:33:27;99541.47;;;18.11;78.73
61537;BME280;48695;53.480;-6.300;2023-07-31T03:35:53;99532.59;;;18.12;78.44
61537;BME280;48695;53.480;-6.300;2023-07-31T03:38:19;99530.91;;;18.11;78.78
61537;BME280;48695;53.480;-6.300;2023-07-31T03:40:44;99526.56;;;18.10;79.01
61537;BME280;48695;53.480;-6.300;2023-07-31T03:43:11;99513.19;;;18.01;79.05
61537;BME280;48695;53.480;-6.300;2023-07-31T03:45:36;99536.06;;;18.13;78.92
61537;BME280;48695;53.480;-6.300;2023-07-31T03:48:03;99521.06;;;18.13;78.81
61537;BME280;48695;53.480;-6.300;2023-07-31T03:50:28;99519.03;;;18.17;78.49
61537;BME280;48695;53.480;-6.300;2023-07-31T03:52:53;99512.06;;;18.16;78.41
61537;BME280;48695;53.480;-6.300;2023-07-31T03:55:19;99515.69;;;18.15;79.14
61537;BME280;48695;53.480;-6.300;2023-07-31T03:57:44;99518.31;;;18.15;78.91
61537;BME280;48695;53.480;-6.300;2023-07-31T04:00:10;99523.59;;;18.15;78.65
61537;BME280;48695;53.480;-6.300;2023-07-31T04:02:36;99518.19;;;18.17;79.01
61537;BME280;48695;53.480;-6.300;2023-07-31T04:05:01;99527.94;;;18.16;79.33
61537;BME280;48695;53.480;-6.300;2023-07-31T04:07:27;99517.34;;;18.16;79.29
61537;BME280;48695;53.480;-6.300;2023-07-31T04:09:52;99520.72;;;18.18;78.98
61537;BME280;48695;53.480;-6.300;2023-07-31T04:12:17;99520.72;;;18.18;78.93
61537;BME280;48695;53.480;-6.300;2023-07-31T04:14:43;99521.47;;;18.20;78.89
61537;BME280;48695;53.480;-6.300;2023-07-31T04:17:08;99517.13;;;18.19;79.05
61537;BME280;48695;53.480;-6.300;2023-07-31T04:19:34;99527.69;;;18.19;78.57
61537;BME280;48695;53.480;-6.300;2023-07-31T04:21:59;99528.13;;;18.13;78.68
61537;BME280;48695;53.480;-6.300;2023-07-31T04:24:24;99527.94;;;18.16;79.43
61537;BME280;48695;53.480;-6.300;2023-07-31T04:26:50;99532.97;;;18.19;78.48
61537;BME280;48695;53.480;-6.300;2023-07-31T04:29:16;99541.13;;;18.16;78.65
61537;BME280;48695;53.480;-6.300;2023-07-31T04:31:41;99553.19;;;18.20;78.20
61537;BME280;48695;53.480;-6.300;2023-07-31T04:34:07;99547.16;;;18.18;78.26
61537;BME280;48695;53.480;-6.300;2023-07-31T04:36:33;99539.47;;;18.15;78.35
61537;BME280;48695;53.480;-6.300;2023-07-31T04:38:59;99533.22;;;18.16;78.33
61537;BME280;48695;53.480;-6.300;2023-07-31T04:41:24;99531.53;;;18.15;78.52
61537;BME280;48695;53.480;-6.300;2023-07-31T04:43:49;99537.66;;;18.15;78.00
61537;BME280;48695;53.480;-6.300;2023-07-31T04:46:15;99525.00;;;18.08;78.70
61537;BME280;48695;53.480;-6.300;2023-07-31T04:48:40;99536.06;;;18.13;78.71
61537;BME280;48695;53.480;-6.300;2023-07-31T04:51:06;99531.88;;;18.10;79.12
61537;BME280;48695;53.480;-6.300;2023-07-31T04:53:31;99533.66;;;18.10;78.45
61537;BME280;48695;53.480;-6.300;2023-07-31T04:55:56;99530.28;;;18.08;78.21
61537;BME280;48695;53.480;-6.300;2023-07-31T04:58:22;99529.56;;;18.06;78.34
61537;BME280;48695;53.480;-6.300;2023-07-31T05:00:47;99531.34;;;18.05;78.79
61537;BME280;48695;53.480;-6.300;2023-07-31T05:03:13;99536.63;;;18.05;78.64
61537;BME280;48695;53.480;-6.300;2023-07-31T05:05:38;99519.13;;;17.92;79.16
61537;BME280;48695;53.480;-6.300;2023-07-31T05:08:03;99544.66;;;18.04;78.72
61537;BME280;48695;53.480;-6.300;2023-07-31T05:10:29;99556.94;;;18.05;78.78
61537;BME280;48695;53.480;-6.300;2023-07-31T05:12:54;99557.78;;;18.05;78.96
61537;BME280;48695;53.480;-6.300;2023-07-31T05:15:20;99559.44;;;18.06;78.45
61537;BME280;48695;53.480;-6.300;2023-07-31T05:17:45;99569.06;;;18.07;78.15
61537;BME280;48695;53.480;-6.300;2023-07-31T05:20:11;99565.56;;;18.07;78.50
61537;BME280;48695;53.480;-6.300;2023-07-31T05:22:36;99555.97;;;18.06;78.41
61537;BME280;48695;53.480;-6.300;2023-07-31T05:25:02;99549.84;;;18.05;78.53
61537;BME280;48695;53.480;-6.300;2023-07-31T05:27:27;99553.31;;;18.06;78.83
61537;BME280;48695;53.480;-6.300;2023-07-31T05:29:53;99550.88;;;18.03;78.67
61537;BME280;48695;53.480;-6.300;2023-07-31T05:32:18;99551.66;;;18.05;78.37
61537;BME280;48695;53.480;-6.300;2023-07-31T05:34:44;99547.28;;;18.04;78.33
61537;BME280;48695;53.480;-6.300;2023-07-31T05:37:10;99540.22;;;18.04;78.35
61537;BME280;48695;53.480;-6.300;2023-07-31T05:39:36;99542.97;;;18.03;78.30
61537;BME280;48695;53.480;-6.300;2023-07-31T05:42:01;99539.59;;;18.01;78.17
61537;BME280;48695;53.480;-6.300;2023-07-31T05:44:27;99545.59;;;18.03;78.73
61537;BME280;48695;53.480;-6.300;2023-07-31T05:46:52;99542.97;;;18.03;78.49
61537;BME280;48695;53.480;-6.300;2023-07-31T05:49:18;99539.38;;;18.04;78.47
61537;BME280;48695;53.480;-6.300;2023-07-31T05:51:43;99538.13;;;17.97;78.27
61537;BME280;48695;53.480;-6.300;2023-07-31T05:54:08;99549.09;;;18.03;77.89
61537;BME280;48695;53.480;-6.300;2023-07-31T05:56:34;99536.00;;;18.02;78.68
61537;BME280;48695;53.480;-6.300;2023-07-31T05:58:59;99528.91;;;18.02;78.30
61537;BME280;48695;53.480;-6.300;2023-07-31T06:01:25;99533.25;;;18.03;78.08
61537;BME280;48695;53.480;-6.300;2023-07-31T06:03:50;99527.13;;;18.03;77.92
61537;BME280;48695;53.480;-6.300;2023-07-31T06:06:15;99529.63;;;18.04;77.78
61537;BME280;48695;53.480;-6.300;2023-07-31T06:08:41;99527.34;;;18.00;77.93
61537;BME280;48695;53.480;-6.300;2023-07-31T06:11:06;99516.56;;;18.03;78.14
61537;BME280;48695;53.480;-6.300;2023-07-31T06:13:34;99508.75;;;18.01;78.38
61537;BME280;48695;53.480;-6.300;2023-07-31T06:15:59;99512.94;;;18.04;77.85
61537;BME280;48695;53.480;-6.300;2023-07-31T06:18:25;99500.69;;;18.03;78.32
61537;BME280;48695;53.480;-6.300;2023-07-31T06:20:50;99519.19;;;18.03;77.80
61537;BME280;48695;53.480;-6.300;2023-07-31T06:23:19;99504.31;;;18.02;78.28
61537;BME280;48695;53.480;-6.300;2023-07-31T06:25:44;99516.78;;;18.00;78.32
61537;BME280;48695;53.480;-6.300;2023-07-31T06:28:10;99503.69;;;17.98;78.01
61537;BME280;48695;53.480;-6.300;2023-07-31T06:30:35;99497.56;;;17.98;77.87
61537;BME280;48695;53.480;-6.300;2023-07-31T06:33:01;99500.94;;;18.00;78.09
61537;BME280;48695;53.480;-6.300;2023-07-31T06:35:26;99492.28;;;17.98;78.03
61537;BME280;48695;53.480;-6.300;2023-07-31T06:37:51;99495.88;;;17.97;78.15
61537;BME280;48695;53.480;-6.300;2023-07-31T06:40:17;99486.97;;;17.98;78.11
61537;BME280;48695;53.480;-6.300;2023-07-31T06:42:42;99502.84;;;17.98;78.10
61537;BME280;48695;53.480;-6.300;2023-07-31T06:45:08;99487.94;;;17.97;78.45
61537;BME280;48695;53.480;-6.300;2023-07-31T06:47:33;99496.72;;;17.97;77.80
61537;BME280;48695;53.480;-6.300;2023-07-31T06:49:59;99517.00;;;17.97;77.65
61537;BME280;48695;53.480;-6.300;2023-07-31T06:52:24;99522.16;;;17.98;77.88
61537;BME280;48695;53.480;-6.300;2023-07-31T06:55:20;99528.06;;;18.02;77.59
61537;BME280;48695;53.480;-6.300;2023-07-31T06:57:47;99528.53;;;17.96;77.78
61537;BME280;48695;53.480;-6.300;2023-07-31T07:00:14;99528.63;;;17.94;77.80
61537;BME280;48695;53.480;-6.300;2023-07-31T07:02:39;99526.09;;;17.93;77.93
61537;BME280;48695;53.480;-6.300;2023-07-31T07:05:06;99519.13;;;17.92;78.26
61537;BME280;48695;53.480;-6.300;2023-07-31T07:07:32;99505.09;;;17.91;78.34
61537;BME280;48695;53.480;-6.300;2023-07-31T07:09:57;99498.13;;;17.90;78.42
61537;BME280;48695;53.480;-6.300;2023-07-31T07:12:25;99506.75;;;17.92;77.54
61537;BME280;48695;53.480;-6.300;2023-07-31T07:14:50;99492.00;;;17.89;78.25
61537;BME280;48695;53.480;-6.300;2023-07-31T07:17:17;99500.44;;;17.95;77.26
61537;BME280;48695;53.480;-6.300;2023-07-31T07:19:43;99506.88;;;17.91;77.51
61537;BME280;48695;53.480;-6.300;2023-07-31T07:22:09;99497.38;;;17.88;78.15
61537;BME280;48695;53.480;-6.300;2023-07-31T07:24:35;99478.94;;;17.75;77.56
61537;BME280;48695;53.480;-6.300;2023-07-31T07:27:00;99512.50;;;17.86;77.92
61537;BME280;48695;53.480;-6.300;2023-07-31T07:29:26;99491.38;;;17.73;77.88
61537;BME280;48695;53.480;-6.300;2023-07-31T07:31:51;99508.50;;;17.80;77.53
61537;BME280;48695;53.480;-6.300;2023-07-31T07:34:17;99513.44;;;17.85;77.51
61537;BME280;48695;53.480;-6.300;2023-07-31T07:36:42;99517.91;;;17.84;77.89
61537;BME280;48695;53.480;-6.300;2023-07-31T07:39:09;99525.06;;;17.82;78.06
61537;BME280;48695;53.480;-6.300;2023-07-31T07:41:35;99519.91;;;17.81;78.06
61537;BME280;48695;53.480;-6.300;2023-07-31T07:44:00;99527.81;;;17.81;77.64
61537;BME280;48695;53.480;-6.300;2023-07-31T07:46:26;99511.97;;;17.81;77.76
61537;BME280;48695;53.480;-6.300;2023-07-31T07:48:51;99513.88;;;17.79;77.62
61537;BME280;48695;53.480;-6.300;2023-07-31T07:51:19;99510.31;;;17.80;77.97
61537;BME280;48695;53.480;-6.300;2023-07-31T07:53:45;99503.53;;;17.76;78.29
61537;BME280;48695;53.480;-6.300;2023-07-31T07:56:10;99497.41;;;17.75;77.95
61537;BME280;48695;53.480;-6.300;2023-07-31T07:58:36;99499.22;;;17.75;78.52
61537;BME280;48695;53.480;-6.300;2023-07-31T08:01:01;99495.75;;;17.74;78.39
61537;BME280;48695;53.480;-6.300;2023-07-31T08:03:26;99488.75;;;17.73;78.47
61537;BME280;48695;53.480;-6.300;2023-07-31T08:05:52;99487.91;;;17.73;78.39
61537;BME280;48695;53.480;-6.300;2023-07-31T08:08:17;99483.47;;;17.73;78.69
61537;BME280;48695;53.480;-6.300;2023-07-31T08:10:43;99483.47;;;17.73;78.78
61537;BME280;48695;53.480;-6.300;2023-07-31T08:13:12;99461.28;;;17.63;79.22
61537;BME280;48695;53.480;-6.300;2023-07-31T08:15:37;99492.22;;;17.74;78.83
61537;BME280;48695;53.480;-6.300;2023-07-31T08:18:02;99499.09;;;17.76;78.50
61537;BME280;48695;53.480;-6.300;2023-07-31T08:20:28;99500.16;;;17.74;79.23
61537;BME280;48695;53.480;-6.300;2023-07-31T08:22:53;99520.88;;;17.80;78.70
61537;BME280;48695;53.480;-6.300;2023-07-31T08:25:19;99517.59;;;17.76;78.49
61537;BME280;48695;53.480;-6.300;2023-07-31T08:27:44;99534.78;;;17.82;78.43
61537;BME280;48695;53.480;-6.300;2023-07-31T08:30:11;99545.97;;;17.85;78.37
61537;BME280;48695;53.480;-6.300;2023-07-31T08:32:37;99549.34;;;17.87;77.94
61537;BME280;48695;53.480;-6.300;2023-07-31T08:35:03;99557.16;;;17.89;78.63
61537;BME280;48695;53.480;-6.300;2023-07-31T08:37:28;99550.81;;;17.92;77.96
61537;BME280;48695;53.480;-6.300;2023-07-31T08:39:53;99550.63;;;17.95;77.85
61537;BME280;48695;53.480;-6.300;2023-07-31T08:42:20;99547.22;;;17.93;77.86
61537;BME280;48695;53.480;-6.300;2023-07-31T08:44:46;99553.25;;;17.95;77.65
61537;BME280;48695;53.480;-6.300;2023-07-31T08:47:12;99543.63;;;17.94;77.47
61537;BME280;48695;53.480;-6.300;2023-07-31T08:49:38;99541.94;;;17.93;77.89
61537;BME280;48695;53.480;-6.300;2023-07-31T08:52:04;99532.53;;;17.88;77.82
61537;BME280;48695;53.480;-6.300;2023-07-31T08:54:30;99520.28;;;17.87;77.51
61537;BME280;48695;53.480;-6.300;2023-07-31T08:56:57;99502.47;;;17.78;77.35
61537;BME280;48695;53.480;-6.300;2023-07-31T08:59:26;99513.66;;;17.82;77.46
61537;BME280;48695;53.480;-6.300;2023-07-31T09:01:55;99507.75;;;17.78;77.66
61537;BME280;48695;53.480;-6.300;2023-07-31T09:04:23;99499.31;;;17.73;77.88
61537;BME280;48695;53.480;-6.300;2023-07-31T09:06:49;99488.00;;;17.71;78.25
61537;BME280;48695;53.480;-6.300;2023-07-31T09:09:16;99487.28;;;17.69;77.55
61537;BME280;48695;53.480;-6.300;2023-07-31T09:11:41;99499.72;;;17.67;78.06
61537;BME280;48695;53.480;-6.300;2023-07-31T09:14:08;99491.69;;;17.69;78.44
61537;BME280;48695;53.480;-6.300;2023-07-31T09:16:34;99489.16;;;17.67;78.31
61537;BME280;48695;53.480;-6.300;2023-07-31T09:19:00;99485.56;;;17.68;78.87
61537;BME280;48695;53.480;-6.300;2023-07-31T09:21:27;99494.22;;;17.70;78.64
61537;BME280;48695;53.480;-6.300;2023-07-31T09:23:53;99495.75;;;17.74;78.06
61537;BME280;48695;53.480;-6.300;2023-07-31T09:26:36;99494.34;;;17.81;78.10
61537;BME280;48695;53.480;-6.300;2023-07-31T09:29:05;99493.38;;;17.82;78.82
61537;BME280;48695;53.480;-6.300;2023-07-31T09:31:40;99494.84;;;17.86;78.24
61537;BME280;48695;53.480;-6.300;2023-07-31T09:34:06;99508.16;;;17.85;78.44
61537;BME280;48695;53.480;-6.300;2023-07-31T09:36:32;99511.66;;;17.85;77.82
61537;BME280;48695;53.480;-6.300;2023-07-31T09:39:04;99509.22;;;17.82;77.98
61537;BME280;48695;53.480;-6.300;2023-07-31T09:41:30;99526.53;;;17.86;77.57
61537;BME280;48695;53.480;-6.300;2023-07-31T09:43:56;99521.25;;;17.86;78.15
61537;BME280;48695;53.480;-6.300;2023-07-31T09:46:21;99528.22;;;17.87;78.03
61537;BME280;48695;53.480;-6.300;2023-07-31T09:48:47;99529.91;;;17.88;78.23
61537;BME280;48695;53.480;-6.300;2023-07-31T09:51:12;99529.91;;;17.88;77.92
61537;BME280;48695;53.480;-6.300;2023-07-31T09:53:38;99535.19;;;17.88;77.55
61537;BME280;48695;53.480;-6.300;2023-07-31T09:56:04;99526.34;;;17.89;77.60
61537;BME280;48695;53.480;-6.300;2023-07-31T09:58:34;99533.28;;;17.91;77.59
61537;BME280;48695;53.480;-6.300;2023-07-31T10:01:01;99532.53;;;17.88;77.87
61537;BME280;48695;53.480;-6.300;2023-07-31T10:03:29;99519.78;;;17.82;78.20
61537;BME280;48695;53.480;-6.300;2023-07-31T10:05:57;99529.19;;;17.86;78.25
61537;BME280;48695;53.480;-6.300;2023-07-31T10:08:30;99527.19;;;17.90;77.91
61537;BME280;48695;53.480;-6.300;2023-07-31T10:10:58;99521.06;;;17.89;78.38
61537;BME280;48695;53.480;-6.300;2023-07-31T10:13:24;99517.66;;;17.87;78.29
61537;BME280;48695;53.480;-6.300;2023-07-31T10:15:50;99512.16;;;17.91;77.90
61537;BME280;48695;53.480;-6.300;2023-07-31T10:18:18;99508.34;;;17.95;78.00
61537;BME280;48695;53.480;-6.300;2023-07-31T10:20:44;99517.22;;;17.94;78.04
61537;BME280;48695;53.480;-6.300;2023-07-31T10:23:10;99481.34;;;17.78;77.52
61537;BME280;48695;53.480;-6.300;2023-07-31T10:25:37;99490.00;;;17.80;77.48
61537;BME280;48695;53.480;-6.300;2023-07-31T10:28:03;99506.88;;;17.91;77.83
61537;BME280;48695;53.480;-6.300;2023-07-31T10:30:30;99503.28;;;17.92;77.58
61537;BME280;48695;53.480;-6.300;2023-07-31T10:32:58;99483.91;;;17.80;77.28
61537;BME280;48695;53.480;-6.300;2023-07-31T10:35:24;99507.22;;;17.86;77.24
61537;BME280;48695;53.480;-6.300;2023-07-31T10:37:50;99485.91;;;17.76;77.22
61537;BME280;48695;53.480;-6.300;2023-07-31T10:40:23;99501.53;;;17.79;77.19
61537;BME280;48695;53.480;-6.300;2023-07-31T10:42:52;99497.59;;;17.72;77.62
61537;BME280;48695;53.480;-6.300;2023-07-31T10:45:25;99503.13;;;17.69;77.48
61537;BME280;48695;53.480;-6.300;2023-07-31T10:48:01;99501.84;;;17.62;77.68
61537;BME280;48695;53.480;-6.300;2023-07-31T10:50:28;99519.81;;;17.57;77.89
61537;BME280;48695;53.480;-6.300;2023-07-31T10:52:55;99489.97;;;17.44;78.38
61537;BME280;48695;53.480;-6.300;2023-07-31T10:55:38;99502.72;;;17.50;77.77
61537;BME280;48695;53.480;-6.300;2023-07-31T10:58:11;99509.16;;;17.46;77.81
61537;BME280;48695;53.480;-6.300;2023-07-31T11:00:42;99496.41;;;17.40;79.39
61537;BME280;48695;53.480;-6.300;2023-07-31T11:03:14;99501.44;;;17.43;78.36
61537;BME280;48695;53.480;-6.300;2023-07-31T11:05:43;99496.16;;;17.43;79.13
61537;BME280;48695;53.480;-6.300;2023-07-31T11:10:37;99467.06;;;17.31;79.56
61537;BME280;48695;53.480;-6.300;2023-07-31T11:13:04;99488.06;;;17.46;79.68
61537;BME280;48695;53.480;-6.300;2023-07-31T11:15:30;99476.53;;;17.47;79.86
61537;BME280;48695;53.480;-6.300;2023-07-31T11:17:56;99484.13;;;17.51;79.69
61537;BME280;48695;53.480;-6.300;2023-07-31T11:20:24;99476.34;;;17.50;79.47
61537;BME280;48695;53.480;-6.300;2023-07-31T11:22:49;99476.84;;;17.55;80.21
61537;BME280;48695;53.480;-6.300;2023-07-31T11:25:16;99477.44;;;17.58;80.07
61537;BME280;48695;53.480;-6.300;2023-07-31T11:27:41;99475.44;;;17.62;80.27
61537;BME280;48695;53.480;-6.300;2023-07-31T11:30:09;99488.19;;;17.68;79.57
61537;BME280;48695;53.480;-6.300;2023-07-31T11:32:37;99491.47;;;17.72;79.90
61537;BME280;48695;53.480;-6.300;2023-07-31T11:35:02;99469.22;;;17.63;79.35
61537;BME280;48695;53.480;-6.300;2023-07-31T11:37:42;99486.63;;;17.78;79.32
61537;BME280;48695;53.480;-6.300;2023-07-31T11:40:08;99484.94;;;17.77;79.50
61537;BME280;48695;53.480;-6.300;2023-07-31T11:42:37;99488.09;;;17.82;79.63
61537;BME280;48695;53.480;-6.300;2023-07-31T11:45:04;99449.22;;;17.72;79.94
61537;BME280;48695;53.480;-6.300;2023-07-31T11:47:32;99465.28;;;17.81;80.21
61537;BME280;48695;53.480;-6.300;2023-07-31T11:50:00;99477.09;;;17.88;80.38
61537;BME280;48695;53.480;-6.300;2023-07-31T11:52:28;99484.78;;;17.92;80.31
61537;BME280;48695;53.480;-6.300;2023-07-31T11:54:55;99483.84;;;17.93;80.11
61537;BME280;48695;53.480;-6.300;2023-07-31T11:57:21;99508.88;;;18.00;79.91
61537;BME280;48695;53.480;-6.300;2023-07-31T11:59:48;99498.06;;;18.03;79.96
61537;BME280;48695;53.480;-6.300;2023-07-31T12:02:13;99489.94;;;18.06;80.34
61537;BME280;48695;53.480;-6.300;2023-07-31T12:04:39;99487.88;;;18.09;80.71
61537;BME280;48695;53.480;-6.300;2023-07-31T12:07:05;99472.91;;;18.10;80.36
61537;BME280;48695;53.480;-6.300;2023-07-31T12:09:30;99475.09;;;18.16;80.44
61537;BME280;48695;53.480;-6.300;2023-07-31T12:11:56;99471.97;;;18.22;80.22
61537;BME280;48695;53.480;-6.300;2023-07-31T12:14:26;99465.28;;;18.29;80.82
61537;BME280;48695;53.480;-6.300;2023-07-31T12:17:09;99469.88;;;18.38;81.03
61537;BME280;48695;53.480;-6.300;2023-07-31T12:19:34;99448.53;;;18.41;81.88
61537;BME280;48695;53.480;-6.300;2023-07-31T12:22:00;99454.69;;;18.64;81.82
61537;BME280;48695;53.480;-6.300;2023-07-31T12:24:26;99452.25;;;18.85;82.56
61537;BME280;48695;53.480;-6.300;2023-07-31T12:26:52;99455.91;;;19.07;81.91
61537;BME280;48695;53.480;-6.300;2023-07-31T12:29:17;99447.25;;;19.27;82.30
61537;BME280;48695;53.480;-6.300;2023-07-31T12:31:43;99428.69;;;19.38;82.02
61537;BME280;48695;53.480;-6.300;2023-07-31T12:34:19;99443.84;;;19.70;81.47
61537;BME280;48695;53.480;-6.300;2023-07-31T12:36:46;99420.59;;;19.74;81.40
61537;BME280;48695;53.480;-6.300;2023-07-31T12:39:14;99445.31;;;20.06;81.63
61537;BME280;48695;53.480;-6.300;2023-07-31T12:41:40;99430.63;;;20.34;81.69
61537;BME280;48695;53.480;-6.300;2023-07-31T12:44:05;99413.84;;;20.66;81.97
61537;BME280;48695;53.480;-6.300;2023-07-31T12:46:31;99417.50;;;20.95;81.13
61537;BME280;48695;53.480;-6.300;2023-07-31T12:48:56;99426.25;;;21.17;80.38
61537;BME280;48695;53.480;-6.300;2023-07-31T12:51:21;99431.41;;;21.39;80.35
61537;BME280;48695;53.480;-6.300;2023-07-31T12:53:47;99410.47;;;21.56;79.26